Time;durP1;ratioP1;P1;durP2;ratioP2;P2;SDS_P1;SDS_P2;PMS_P1;PMS_P2;Temp;Humidity;BMP_temperature;BMP_pressure;BME280_temperature;BME280_humidity;BME280_pressure;Samples;Min_cycle;Max_cycle;Signal;HPM_P1;HPM_P2
2023/01/15 00:00:42;;;;;;;;;;;9.10;99.90;;;;;;2023310;29;19919;-72
2023/01/15 00:01:42;;;;;;;;;;;9.10;99.90;;;;;;2025218;29;20362;-72
2023/01/15 00:02:43;;;;;;;;;;;9.10;99.90;;;;;;2024291;29;20604;-72
2023/01/15 00:03:43;;;;;;;;;;;9.10;99.90;;;;;;2025283;29;20007;-72
2023/01/15 00:04:43;;;;;;;;;;;9.00;99.90;;;;;;2024449;29;19982;-72
2023/01/15 00:05:44;;;;;;;;;;;9.00;99.90;;;;;;2023890;29;19959;-72
2023/01/15 00:06:44;;;;;;;;;;;9.00;99.90;;;;;;2024165;29;19911;-72
2023/01/15 00:07:45;;;;;;;;;;;9.00;99.90;;;;;;2025048;29;19911;-72
2023/01/15 00:08:46;;;;;;;;;;;8.90;99.90;;;;;;2026562;29;19979;-72
2023/01/15 00:09:46;;;;;;;;;;;8.90;99.90;;;;;;2023170;29;20038;-72
2023/01/15 00:10:47;;;;;;;;;;;8.90;99.90;;;;;;2025856;29;19967;-72
2023/01/15 00:11:47;;;;;;;;;;;8.90;99.90;;;;;;2025345;29;20561;-72
2023/01/15 00:12:49;;;;;;;;;;;8.90;99.90;;;;;;2027202;29;19947;-72
2023/01/15 00:13:50;;;;;;;;;;;8.90;99.90;;;;;;2026744;29;19919;-72
2023/01/15 00:14:50;;;;;;;;;;;8.90;99.90;;;;;;2025362;29;19915;-72
2023/01/15 00:15:51;;;;;;;;;;;8.80;99.90;;;;;;2023862;29;20014;-72
2023/01/15 00:16:51;;;;;;;;;;;8.80;99.90;;;;;;2025170;29;19915;-72
2023/01/15 00:17:52;;;;;;;;;;;8.80;99.90;;;;;;2025602;29;19911;-72
2023/01/15 00:18:53;;;;;;;;;;;8.80;99.90;;;;;;2024713;29;19915;-72
2023/01/15 00:19:54;;;;;;;;;;;8.80;99.90;;;;;;2021540;29;19925;-72
2023/01/15 00:20:58;;;;;;;;;;;8.80;99.90;;;;;;2024784;29;19915;-72
2023/01/15 00:21:58;;;;;;;;;;;8.80;99.90;;;;;;2024347;29;19919;-72
2023/01/15 00:22:59;;;;;;;;;;;8.70;99.90;;;;;;2023490;29;19912;-72
2023/01/15 00:27:57;;;;;;;;;;;8.60;99.90;;;;;;2025479;29;19919;-71
2023/01/15 00:28:57;;;;;;;;;;;8.60;99.90;;;;;;2025803;29;20359;-72
2023/01/15 00:29:58;;;;;;;;;;;8.60;99.90;;;;;;2025206;29;20517;-71
2023/01/15 00:30:58;;;;;;;;;;;8.60;99.90;;;;;;2024338;29;19919;-71
2023/01/15 00:32:06;;;;;;;;;;;8.60;99.90;;;;;;2023915;29;20020;-71
2023/01/15 00:33:06;;;;;;;;;;;8.60;99.90;;;;;;2023539;29;19912;-72
2023/01/15 00:34:07;;;;;;;;;;;8.60;99.90;;;;;;2025175;29;19922;-72
2023/01/15 00:35:12;;;;;;;;;;;8.60;99.90;;;;;;2026560;29;19959;-72
2023/01/15 00:36:12;;;;;;;;;;;8.60;99.90;;;;;;2024942;29;19919;-72
2023/01/15 00:37:12;;;;;;;;;;;8.60;99.90;;;;;;2024241;29;19907;-72
2023/01/15 00:38:13;;;;;;;;;;;8.60;99.90;;;;;;2026371;29;20375;-72
2023/01/15 00:39:13;;;;;;;;;;;8.60;99.90;;;;;;2024257;29;19915;-72
2023/01/15 00:40:15;;;;;;;;;;;8.50;99.90;;;;;;2026876;29;19911;-72
2023/01/15 00:41:15;;;;;;;;;;;8.60;99.90;;;;;;2026315;29;20561;-72
2023/01/15 00:42:16;;;;;;;;;;;8.50;99.90;;;;;;2026456;29;20025;-72
2023/01/15 00:43:17;;;;;;;;;;;8.50;99.90;;;;;;2024711;29;20002;-72
2023/01/15 00:44:18;;;;;;;;;;;8.50;99.90;;;;;;2023030;29;19949;-72
2023/01/15 00:45:18;;;;;;;;;;;8.50;99.90;;;;;;2025178;29;19985;-72
2023/01/15 00:46:18;;;;;;;;;;;8.50;99.90;;;;;;2026926;29;19915;-72
2023/01/15 00:47:19;;;;;;;;;;;8.50;99.90;;;;;;2024118;29;19915;-72
2023/01/15 00:48:19;;;;;;;;;;;8.50;99.90;;;;;;2026642;29;20459;-72
2023/01/15 00:49:20;;;;;;;;;;;8.50;99.90;;;;;;2025811;29;19911;-72
2023/01/15 00:50:20;;;;;;;;;;;8.50;99.90;;;;;;2026518;29;20496;-72
2023/01/15 00:51:21;;;;;;;;;;;8.50;99.90;;;;;;2025126;29;19946;-72
2023/01/15 00:52:21;;;;;;;;;;;8.50;99.90;;;;;;2024540;29;19955;-72
2023/01/15 00:53:22;;;;;;;;;;;8.50;99.90;;;;;;2026018;29;19917;-72
2023/01/15 00:54:22;;;;;;;;;;;8.50;99.90;;;;;;2025277;29;19998;-72
2023/01/15 00:55:23;;;;;;;;;;;8.50;99.90;;;;;;2024888;29;19966;-72
2023/01/15 00:56:23;;;;;;;;;;;8.50;99.90;;;;;;2026210;29;19971;-72
2023/01/15 00:57:24;;;;;;;;;;;8.50;99.90;;;;;;2022554;29;20046;-72
2023/01/15 00:58:24;;;;;;;;;;;8.50;99.90;;;;;;2026528;29;19912;-71
2023/01/15 00:59:25;;;;;;;;;;;8.50;99.90;;;;;;2025027;29;19911;-72
2023/01/15 01:00:25;;;;;;;;;;;8.50;99.90;;;;;;2026051;29;20275;-72
2023/01/15 01:01:26;;;;;;;;;;;8.50;99.90;;;;;;2022845;29;19916;-72
2023/01/15 01:02:26;;;;;;;;;;;8.50;99.90;;;;;;2024589;29;19951;-72
2023/01/15 01:03:27;;;;;;;;;;;8.50;99.90;;;;;;2026549;29;20367;-72
2023/01/15 01:04:27;;;;;;;;;;;8.50;99.90;;;;;;2026049;29;19947;-72
2023/01/15 01:05:28;;;;;;;;;;;8.50;99.90;;;;;;2025098;29;19907;-72
2023/01/15 01:06:28;;;;;;;;;;;8.50;99.90;;;;;;2032628;29;19910;-72
2023/01/15 01:07:29;;;;;;;;;;;8.50;99.90;;;;;;2030679;29;19922;-72
2023/01/15 01:08:29;;;;;;;;;;;8.50;99.90;;;;;;2025231;29;19912;-72
2023/01/15 01:09:30;;;;;;;;;;;8.50;99.90;;;;;;2024181;29;19954;-72
2023/01/15 01:10:30;;;;;;;;;;;8.50;99.90;;;;;;2031925;29;19915;-72
2023/01/15 01:11:32;;;;;;;;;;;8.50;99.90;;;;;;2031333;29;19918;-72
2023/01/15 01:12:33;;;;;;;;;;;8.50;99.90;;;;;;2024348;29;19966;-72
2023/01/15 01:13:34;;;;;;;;;;;8.50;99.90;;;;;;2024492;29;19926;-72
2023/01/15 01:14:35;;;;;;;;;;;8.50;99.90;;;;;;2026371;29;19934;-72
2023/01/15 01:15:37;;;;;;;;;;;8.50;99.90;;;;;;2024327;29;19918;-72
2023/01/15 01:16:38;;;;;;;;;;;8.50;99.90;;;;;;2025215;29;19915;-72
2023/01/15 01:17:38;;;;;;;;;;;8.50;99.90;;;;;;2024543;29;19911;-72
2023/01/15 01:18:39;;;;;;;;;;;8.50;99.90;;;;;;2027076;29;19915;-72
2023/01/15 01:19:39;;;;;;;;;;;8.50;99.90;;;;;;2026288;29;19922;-72
2023/01/15 01:20:40;;;;;;;;;;;8.50;99.90;;;;;;2026246;29;20267;-72
2023/01/15 01:21:41;;;;;;;;;;;8.50;99.90;;;;;;2023744;29;20446;-72
2023/01/15 01:22:42;;;;;;;;;;;8.50;99.90;;;;;;2026593;29;19911;-72
2023/01/15 01:23:43;;;;;;;;;;;8.40;99.90;;;;;;2024634;29;19916;-72
2023/01/15 01:24:43;;;;;;;;;;;8.50;99.90;;;;;;2024373;29;20402;-72
2023/01/15 01:25:44;;;;;;;;;;;8.40;99.90;;;;;;2024233;29;20560;-72
2023/01/15 01:26:45;;;;;;;;;;;8.40;99.90;;;;;;2023839;29;20439;-72
2023/01/15 01:27:46;;;;;;;;;;;8.40;99.90;;;;;;2025850;29;19915;-72
2023/01/15 01:28:50;;;;;;;;;;;8.40;99.90;;;;;;2021752;29;19920;-72
2023/01/15 01:29:50;;;;;;;;;;;8.40;99.90;;;;;;2024927;29;19919;-72
2023/01/15 01:30:51;;;;;;;;;;;8.40;99.90;;;;;;2023577;29;19991;-72
2023/01/15 01:31:51;;;;;;;;;;;8.40;99.90;;;;;;2022463;29;19975;-72
2023/01/15 01:32:52;;;;;;;;;;;8.40;99.90;;;;;;2023669;29;19995;-72
2023/01/15 01:33:53;;;;;;;;;;;8.40;99.90;;;;;;2024980;29;19918;-72
2023/01/15 01:34:54;;;;;;;;;;;8.40;99.90;;;;;;2033735;29;19907;-72
2023/01/15 01:35:54;;;;;;;;;;;8.40;99.90;;;;;;2033380;29;19923;-72
2023/01/15 01:36:55;;;;;;;;;;;8.40;99.90;;;;;;2023858;29;20007;-72
2023/01/15 01:37:55;;;;;;;;;;;8.40;99.90;;;;;;2023364;29;19915;-72
2023/01/15 01:38:56;;;;;;;;;;;8.40;99.90;;;;;;2025853;29;19912;-72
2023/01/15 01:39:56;;;;;;;;;;;8.50;99.90;;;;;;2024874;29;19912;-72
2023/01/15 01:40:56;;;;;;;;;;;8.40;99.90;;;;;;2025173;29;20465;-72
2023/01/15 01:41:57;;;;;;;;;;;8.50;99.90;;;;;;2024969;29;19911;-72
2023/01/15 01:42:57;;;;;;;;;;;8.50;99.90;;;;;;2024651;29;20381;-72
2023/01/15 01:43:59;;;;;;;;;;;8.40;99.90;;;;;;2025323;29;19907;-72
2023/01/15 01:45:02;;;;;;;;;;;8.50;99.90;;;;;;2023605;29;19938;-72
2023/01/15 01:46:03;;;;;;;;;;;8.50;99.90;;;;;;2024026;29;19915;-72
2023/01/15 01:47:08;;;;;;;;;;;8.50;99.90;;;;;;2026825;29;19923;-72
2023/01/15 01:48:09;;;;;;;;;;;8.40;99.90;;;;;;2027003;29;20312;-72
2023/01/15 01:49:11;;;;;;;;;;;8.50;99.90;;;;;;2025779;29;19912;-72
2023/01/15 01:50:12;;;;;;;;;;;8.40;99.90;;;;;;2028054;29;20523;-72
2023/01/15 01:51:13;;;;;;;;;;;8.40;99.90;;;;;;2027121;29;20592;-72
2023/01/15 01:52:17;;;;;;;;;;;8.50;99.90;;;;;;2027868;29;20313;-72
2023/01/15 01:53:22;;;;;;;;;;;8.40;99.90;;;;;;2027408;29;19912;-72
2023/01/15 01:54:24;;;;;;;;;;;8.40;99.90;;;;;;2025096;29;20396;-72
2023/01/15 01:55:25;;;;;;;;;;;8.40;99.90;;;;;;2033317;29;19970;-72
2023/01/15 01:56:26;;;;;;;;;;;8.40;99.90;;;;;;2021657;29;19916;-72
2023/01/15 01:57:26;;;;;;;;;;;8.40;99.90;;;;;;2021073;29;19995;-72
2023/01/15 01:58:29;;;;;;;;;;;8.40;99.90;;;;;;2027989;29;19916;-72
2023/01/15 01:59:30;;;;;;;;;;;8.40;99.90;;;;;;2026204;29;20287;-71
2023/01/15 02:00:31;;;;;;;;;;;8.40;99.90;;;;;;2026067;29;19915;-71
2023/01/15 02:01:32;;;;;;;;;;;8.30;99.90;;;;;;2026842;29;19960;-71
2023/01/15 02:02:34;;;;;;;;;;;8.30;99.90;;;;;;2025403;29;20003;-72
2023/01/15 02:03:36;;;;;;;;;;;8.30;99.90;;;;;;2027146;29;19962;-72
2023/01/15 02:04:36;;;;;;;;;;;8.30;99.90;;;;;;2025744;29;20295;-72
2023/01/15 02:05:38;;;;;;;;;;;8.30;99.90;;;;;;2027503;29;19934;-72
2023/01/15 02:06:40;;;;;;;;;;;8.30;99.90;;;;;;2027562;29;20010;-71
2023/01/15 02:07:40;;;;;;;;;;;8.30;99.90;;;;;;2024947;29;20388;-72
2023/01/15 02:08:41;;;;;;;;;;;8.30;99.90;;;;;;2025764;29;20299;-72
2023/01/15 02:09:41;;;;;;;;;;;8.30;99.90;;;;;;2027269;29;19915;-72
2023/01/15 02:10:42;;;;;;;;;;;8.30;99.90;;;;;;2023732;29;20010;-72
2023/01/15 02:11:42;;;;;;;;;;;8.30;99.90;;;;;;2024529;29;20021;-71
2023/01/15 02:12:46;;;;;;;;;;;8.30;99.90;;;;;;2026610;29;19925;-72
2023/01/15 02:13:52;;;;;;;;;;;8.30;99.90;;;;;;2027076;29;19937;-72
2023/01/15 02:15:07;;;;;;;;;;;8.20;99.90;;;;;;2025313;29;19915;-72
2023/01/15 02:16:20;;;;;;;;;;;8.20;99.90;;;;;;2026970;29;19926;-72
2023/01/15 02:17:34;;;;;;;;;;;8.20;99.90;;;;;;2024255;29;19950;-72
2023/01/15 02:18:56;;;;;;;;;;;8.20;99.90;;;;;;2028699;29;19968;-72
2023/01/15 02:20:05;;;;;;;;;;;8.20;99.90;;;;;;2028206;29;19953;-72
2023/01/15 02:21:15;;;;;;;;;;;8.20;99.90;;;;;;2025514;29;20067;-72
2023/01/15 02:22:34;;;;;;;;;;;8.20;99.90;;;;;;2029126;29;20486;-72
2023/01/15 02:23:44;;;;;;;;;;;8.20;99.90;;;;;;2026567;29;19915;-72
2023/01/15 02:25:07;;;;;;;;;;;8.20;99.90;;;;;;2025547;29;19907;-71
2023/01/15 02:26:13;;;;;;;;;;;8.20;99.90;;;;;;2026691;29;19911;-72
2023/01/15 02:27:16;;;;;;;;;;;8.20;99.90;;;;;;2026338;29;19916;-72
2023/01/15 02:28:24;;;;;;;;;;;8.20;99.90;;;;;;2026424;29;19919;-72
2023/01/15 02:29:46;;;;;;;;;;;8.20;99.90;;;;;;2025154;29;19915;-71
2023/01/15 02:30:50;;;;;;;;;;;8.20;99.90;;;;;;2025453;29;19962;-71
2023/01/15 02:31:51;;;;;;;;;;;8.20;99.90;;;;;;2025329;29;20505;-72
2023/01/15 02:32:55;;;;;;;;;;;8.20;99.90;;;;;;2026744;29;20328;-72
2023/01/15 02:34:02;;;;;;;;;;;8.20;99.90;;;;;;2024968;29;19975;-72
2023/01/15 02:35:06;;;;;;;;;;;8.20;99.90;;;;;;2024563;29;19972;-72
2023/01/15 02:36:10;;;;;;;;;;;8.20;99.90;;;;;;2025472;29;19915;-72
2023/01/15 02:37:14;;;;;;;;;;;8.20;99.90;;;;;;2025499;29;19931;-72
2023/01/15 02:38:17;;;;;;;;;;;8.20;99.90;;;;;;2026287;29;19915;-72
2023/01/15 02:39:19;;;;;;;;;;;8.20;99.90;;;;;;2032302;29;19911;-71
2023/01/15 02:40:20;;;;;;;;;;;8.20;99.90;;;;;;2032389;29;19931;-72
2023/01/15 02:41:24;;;;;;;;;;;8.20;99.90;;;;;;2024623;29;20019;-72
2023/01/15 02:42:26;;;;;;;;;;;8.20;99.90;;;;;;2026365;29;20003;-72
2023/01/15 02:43:31;;;;;;;;;;;8.20;99.90;;;;;;2025605;29;19926;-72
2023/01/15 02:44:32;;;;;;;;;;;8.20;99.90;;;;;;2027732;29;19917;-72
2023/01/15 02:45:35;;;;;;;;;;;8.20;99.90;;;;;;2024936;29;20397;-71
2023/01/15 02:46:36;;;;;;;;;;;8.10;99.90;;;;;;2022336;29;19922;-72
2023/01/15 02:47:38;;;;;;;;;;;8.20;99.90;;;;;;2025981;29;20356;-72
2023/01/15 02:48:40;;;;;;;;;;;8.10;99.90;;;;;;2025959;29;19915;-72
2023/01/15 02:49:41;;;;;;;;;;;8.20;99.90;;;;;;2025769;29;20264;-72
2023/01/15 02:50:44;;;;;;;;;;;8.10;99.90;;;;;;2028137;29;19915;-72
2023/01/15 02:52:04;;;;;;;;;;;8.20;99.90;;;;;;2025594;29;19923;-72
2023/01/15 02:53:07;;;;;;;;;;;8.20;99.90;;;;;;2025632;29;20344;-72
2023/01/15 02:54:10;;;;;;;;;;;8.10;99.90;;;;;;2025054;29;19919;-71
2023/01/15 02:55:22;;;;;;;;;;;8.20;99.90;;;;;;2026368;29;19915;-71
2023/01/15 02:56:26;;;;;;;;;;;8.20;99.90;;;;;;2024138;29;20278;-72
2023/01/15 02:57:27;;;;;;;;;;;8.20;99.90;;;;;;2025938;29;19926;-72
2023/01/15 02:58:31;;;;;;;;;;;8.20;99.90;;;;;;2024961;29;19964;-71
2023/01/15 02:59:38;;;;;;;;;;;8.20;99.90;;;;;;2024067;29;19955;-71
2023/01/15 03:00:41;;;;;;;;;;;8.20;99.90;;;;;;2025277;29;19993;-72
2023/01/15 03:01:45;;;;;;;;;;;8.20;99.90;;;;;;2024088;29;19994;-71
2023/01/15 03:02:48;;;;;;;;;;;8.20;99.90;;;;;;2025814;29;19916;-72
2023/01/15 03:04:06;;;;;;;;;;;8.20;99.90;;;;;;2027190;29;19911;-71
2023/01/15 03:05:10;;;;;;;;;;;8.10;99.90;;;;;;2024919;29;19927;-71
2023/01/15 03:06:31;;;;;;;;;;;8.20;99.90;;;;;;2023873;29;19939;-72
2023/01/15 03:07:38;;;;;;;;;;;8.20;99.90;;;;;;2025463;29;19951;-72
2023/01/15 03:08:39;;;;;;;;;;;8.20;99.90;;;;;;2027732;29;20342;-72
2023/01/15 03:09:39;;;;;;;;;;;8.10;99.90;;;;;;2025861;29;19920;-72
2023/01/15 03:10:58;;;;;;;;;;;8.10;99.90;;;;;;2025255;29;19916;-72
2023/01/15 03:12:01;;;;;;;;;;;8.10;99.90;;;;;;2023103;29;19969;-71
2023/01/15 03:13:03;;;;;;;;;;;8.20;99.90;;;;;;2026250;29;19911;-71
2023/01/15 03:14:08;;;;;;;;;;;8.20;99.90;;;;;;2026763;29;19915;-72
2023/01/15 03:16:33;;;;;;;;;;;8.20;99.90;;;;;;2020498;29;19918;-71
2023/01/15 03:16:34;;;;;;;;;;;8.10;99.90;;;;;;2021313;29;19915;-72
2023/01/15 03:17:37;;;;;;;;;;;8.20;99.90;;;;;;2028015;29;20399;-72
2023/01/15 03:18:43;;;;;;;;;;;8.20;99.90;;;;;;2026352;29;20430;-71
2023/01/15 03:19:49;;;;;;;;;;;8.20;99.90;;;;;;2026554;29;19907;-71
2023/01/15 03:20:52;;;;;;;;;;;8.10;99.90;;;;;;2028648;29;20271;-72
2023/01/15 03:22:12;;;;;;;;;;;8.20;99.90;;;;;;2025963;29;19934;-72
2023/01/15 03:23:15;;;;;;;;;;;8.20;99.90;;;;;;2015325;29;20407;-72
2023/01/15 03:24:20;;;;;;;;;;;8.10;99.90;;;;;;2026097;29;19915;-72
2023/01/15 03:25:23;;;;;;;;;;;8.10;99.90;;;;;;2025231;29;19912;-72
2023/01/15 03:26:24;;;;;;;;;;;8.10;99.90;;;;;;2025484;29;19912;-72
2023/01/15 03:27:24;;;;;;;;;;;8.10;99.90;;;;;;2026023;29;19908;-72
2023/01/15 03:28:26;;;;;;;;;;;8.20;99.90;;;;;;2025144;29;20291;-72
2023/01/15 03:29:29;;;;;;;;;;;8.10;99.90;;;;;;2027456;29;19907;-72
2023/01/15 03:30:29;;;;;;;;;;;8.10;99.90;;;;;;2027527;29;19934;-72
2023/01/15 03:31:30;;;;;;;;;;;8.10;99.90;;;;;;2025171;29;19934;-71
2023/01/15 03:32:31;;;;;;;;;;;8.20;99.90;;;;;;2025400;29;19949;-71
2023/01/15 03:33:33;;;;;;;;;;;8.20;99.90;;;;;;2024976;29;19914;-72
2023/01/15 03:34:36;;;;;;;;;;;8.10;99.90;;;;;;2023105;29;20006;-72
2023/01/15 03:35:57;;;;;;;;;;;8.10;99.90;;;;;;2025201;29;19918;-72
2023/01/15 03:36:58;;;;;;;;;;;8.10;99.90;;;;;;2025120;29;19946;-71
2023/01/15 03:37:58;;;;;;;;;;;8.10;99.90;;;;;;2027025;29;19911;-71
2023/01/15 03:38:59;;;;;;;;;;;8.10;99.90;;;;;;2024443;29;19917;-71
2023/01/15 03:40:00;;;;;;;;;;;8.10;99.90;;;;;;2025459;29;19998;-71
2023/01/15 03:41:19;;;;;;;;;;;8.10;99.90;;;;;;2027279;29;19910;-71
2023/01/15 03:42:22;;;;;;;;;;;8.20;99.90;;;;;;2024717;29;20383;-71
2023/01/15 03:43:41;;;;;;;;;;;8.10;99.90;;;;;;2025929;29;19911;-71
2023/01/15 03:45:00;;;;;;;;;;;8.10;99.90;;;;;;2026909;29;20291;-71
2023/01/15 03:46:03;;;;;;;;;;;8.20;99.90;;;;;;2024126;29;19915;-71
2023/01/15 03:47:09;;;;;;;;;;;8.20;99.90;;;;;;2024436;29;19915;-71
2023/01/15 03:48:16;;;;;;;;;;;8.20;99.90;;;;;;2023442;29;19916;-71
2023/01/15 03:49:36;;;;;;;;;;;8.20;99.90;;;;;;2025183;29;20009;-71
2023/01/15 03:50:47;;;;;;;;;;;8.20;99.90;;;;;;2031054;29;20697;-72
2023/01/15 03:51:59;;;;;;;;;;;8.10;99.90;;;;;;2032144;29;19910;-72
2023/01/15 03:53:18;;;;;;;;;;;8.10;99.90;;;;;;2024599;29;20363;-71
2023/01/15 03:54:39;;;;;;;;;;;8.10;99.90;;;;;;2026336;29;19907;-71
2023/01/15 03:55:46;;;;;;;;;;;8.10;99.90;;;;;;2021067;29;19911;-71
2023/01/15 03:56:54;;;;;;;;;;;8.10;99.90;;;;;;2025306;29;20313;-71
2023/01/15 03:58:12;;;;;;;;;;;8.10;99.90;;;;;;2024676;29;19911;-71
2023/01/15 03:59:17;;;;;;;;;;;8.10;99.90;;;;;;2024274;29;20737;-71
2023/01/15 04:00:21;;;;;;;;;;;8.10;99.90;;;;;;2026263;29;19907;-71
2023/01/15 04:01:24;;;;;;;;;;;8.10;99.90;;;;;;2026356;29;20378;-71
2023/01/15 04:02:26;;;;;;;;;;;8.10;99.90;;;;;;2021788;29;19919;-71
2023/01/15 04:03:27;;;;;;;;;;;8.10;99.90;;;;;;2025040;29;19911;-71
2023/01/15 04:04:27;;;;;;;;;;;8.10;99.90;;;;;;2024828;29;20427;-71
2023/01/15 04:05:29;;;;;;;;;;;8.10;99.90;;;;;;2024540;29;19907;-71
2023/01/15 04:06:30;;;;;;;;;;;8.10;99.90;;;;;;2027450;29;19911;-72
2023/01/15 04:07:31;;;;;;;;;;;8.10;99.90;;;;;;2024503;29;19922;-71
2023/01/15 04:08:37;;;;;;;;;;;8.10;99.90;;;;;;2026372;29;19939;-71
2023/01/15 04:09:39;;;;;;;;;;;8.10;99.90;;;;;;2024562;29;20428;-72
2023/01/15 04:10:53;;;;;;;;;;;8.10;99.90;;;;;;2026912;29;19963;-72
2023/01/15 04:11:57;;;;;;;;;;;8.10;99.90;;;;;;2019416;29;19916;-72
2023/01/15 04:12:58;;;;;;;;;;;8.10;99.90;;;;;;2021000;29;19926;-71
2023/01/15 04:13:58;;;;;;;;;;;8.10;99.90;;;;;;2026426;29;19951;-71
2023/01/15 04:14:59;;;;;;;;;;;8.10;99.90;;;;;;2027051;29;19963;-71
2023/01/15 04:15:59;;;;;;;;;;;8.10;99.90;;;;;;2025187;29;20009;-72
2023/01/15 04:17:00;;;;;;;;;;;8.10;99.90;;;;;;2017691;29;19926;-71
2023/01/15 04:18:00;;;;;;;;;;;8.10;99.90;;;;;;2024987;29;19915;-71
2023/01/15 04:19:01;;;;;;;;;;;8.10;99.90;;;;;;2025845;29;19966;-72
2023/01/15 04:20:01;;;;;;;;;;;8.10;99.90;;;;;;2026904;29;19915;-72
2023/01/15 04:21:02;;;;;;;;;;;8.10;99.90;;;;;;2026337;29;19911;-71
2023/01/15 04:22:02;;;;;;;;;;;8.00;99.90;;;;;;2025387;29;20481;-71
2023/01/15 04:23:03;;;;;;;;;;;8.10;99.90;;;;;;2023708;29;20851;-71
2023/01/15 04:24:03;;;;;;;;;;;8.10;99.90;;;;;;2023836;29;19915;-71
2023/01/15 04:25:04;;;;;;;;;;;8.00;99.90;;;;;;2023984;29;19917;-71
2023/01/15 04:26:06;;;;;;;;;;;8.00;99.90;;;;;;2024522;29;20002;-71
2023/01/15 04:27:06;;;;;;;;;;;8.00;99.90;;;;;;2025038;29;19915;-71
2023/01/15 04:28:08;;;;;;;;;;;8.10;99.90;;;;;;2026243;29;19922;-72
2023/01/15 04:29:08;;;;;;;;;;;8.10;99.90;;;;;;2026487;29;19918;-72
2023/01/15 04:30:09;;;;;;;;;;;8.00;99.90;;;;;;2024592;29;20405;-71
2023/01/15 04:31:09;;;;;;;;;;;8.10;99.90;;;;;;2027650;29;19963;-71
2023/01/15 04:32:10;;;;;;;;;;;8.10;99.90;;;;;;2026458;29;19912;-71
2023/01/15 04:33:10;;;;;;;;;;;8.10;99.90;;;;;;2025642;29;19978;-71
2023/01/15 04:34:11;;;;;;;;;;;8.00;99.90;;;;;;2032478;29;19918;-71
2023/01/15 04:35:11;;;;;;;;;;;8.00;99.90;;;;;;2031686;29;19911;-72
2023/01/15 04:36:13;;;;;;;;;;;8.10;99.90;;;;;;2024282;29;20349;-71
2023/01/15 04:37:15;;;;;;;;;;;8.00;99.90;;;;;;2025010;29;19921;-71
2023/01/15 04:38:16;;;;;;;;;;;8.00;99.90;;;;;;2022170;29;19919;-71
2023/01/15 04:39:17;;;;;;;;;;;8.00;99.90;;;;;;2025828;29;19912;-71
2023/01/15 04:44:15;;;;;;;;;;;8.00;99.90;;;;;;2025716;29;19916;-71
2023/01/15 04:45:15;;;;;;;;;;;8.00;99.90;;;;;;2024297;29;19911;-71
2023/01/15 04:46:21;;;;;;;;;;;8.00;99.90;;;;;;2024671;29;19914;-71
2023/01/15 04:47:22;;;;;;;;;;;8.00;99.90;;;;;;2023339;29;19918;-73
2023/01/15 04:48:22;;;;;;;;;;;8.00;99.90;;;;;;2026550;29;19918;-71
2023/01/15 04:49:23;;;;;;;;;;;8.00;99.90;;;;;;2026837;29;19946;-71
2023/01/15 04:50:23;;;;;;;;;;;8.00;99.90;;;;;;2026664;29;19926;-72
2023/01/15 04:51:23;;;;;;;;;;;8.00;99.90;;;;;;2027773;29;19911;-71
2023/01/15 04:52:24;;;;;;;;;;;8.00;99.90;;;;;;2023686;29;20673;-71
2023/01/15 04:53:25;;;;;;;;;;;8.00;99.90;;;;;;2031798;29;20040;-71
2023/01/15 04:54:25;;;;;;;;;;;8.00;99.90;;;;;;2033572;29;19907;-71
2023/01/15 04:55:26;;;;;;;;;;;8.00;99.90;;;;;;2024634;29;19966;-71
2023/01/15 04:56:26;;;;;;;;;;;8.00;99.90;;;;;;2025421;29;20714;-71
2023/01/15 04:57:27;;;;;;;;;;;8.00;99.90;;;;;;2025152;29;19919;-72
2023/01/15 04:58:27;;;;;;;;;;;8.00;99.90;;;;;;2026346;29;19919;-72
2023/01/15 04:59:28;;;;;;;;;;;8.00;99.90;;;;;;2024644;29;19912;-71
2023/01/15 05:00:28;;;;;;;;;;;7.90;99.90;;;;;;2033824;29;19918;-71
2023/01/15 05:01:29;;;;;;;;;;;8.00;99.90;;;;;;2031157;29;19971;-71
2023/01/15 05:02:29;;;;;;;;;;;8.00;99.90;;;;;;2025551;29;19924;-71
2023/01/15 05:03:30;;;;;;;;;;;8.00;99.90;;;;;;2025180;29;19912;-71
2023/01/15 05:04:31;;;;;;;;;;;8.00;99.90;;;;;;2027279;29;19911;-71
2023/01/15 05:05:31;;;;;;;;;;;8.00;99.90;;;;;;2024632;29;20410;-71
2023/01/15 05:06:32;;;;;;;;;;;7.90;99.90;;;;;;2025048;29;21301;-71
2023/01/15 05:07:32;;;;;;;;;;;8.00;99.90;;;;;;2023822;29;19915;-71
2023/01/15 05:08:33;;;;;;;;;;;8.00;99.90;;;;;;2024713;29;19970;-72
2023/01/15 05:09:33;;;;;;;;;;;7.90;99.90;;;;;;2023762;29;20154;-72
2023/01/15 05:10:33;;;;;;;;;;;8.00;99.90;;;;;;2023639;29;20376;-72
2023/01/15 05:11:35;;;;;;;;;;;7.90;99.90;;;;;;2022646;29;20635;-71
2023/01/15 05:12:35;;;;;;;;;;;7.90;99.90;;;;;;2023600;29;19919;-71
2023/01/15 05:13:36;;;;;;;;;;;7.90;99.90;;;;;;2024616;29;21146;-71
2023/01/15 05:14:37;;;;;;;;;;;7.90;99.90;;;;;;2027247;29;19951;-71
2023/01/15 05:15:39;;;;;;;;;;;7.90;99.90;;;;;;2026142;29;19994;-71
2023/01/15 05:16:39;;;;;;;;;;;7.90;99.90;;;;;;2025960;29;19918;-71
2023/01/15 05:17:40;;;;;;;;;;;7.90;99.90;;;;;;2023927;29;19916;-71
2023/01/15 05:18:42;;;;;;;;;;;7.90;99.90;;;;;;2024363;29;19921;-71
2023/01/15 05:19:42;;;;;;;;;;;7.90;99.90;;;;;;2026428;29;19915;-71
2023/01/15 05:20:42;;;;;;;;;;;7.90;99.90;;;;;;2027533;29;19918;-71
2023/01/15 05:21:43;;;;;;;;;;;7.90;99.90;;;;;;2025272;29;19919;-71
2023/01/15 05:22:44;;;;;;;;;;;7.90;99.90;;;;;;2022502;29;19983;-71
2023/01/15 05:23:44;;;;;;;;;;;7.90;99.90;;;;;;2025871;29;19907;-72
2023/01/15 05:24:44;;;;;;;;;;;7.90;99.90;;;;;;2024963;29;19919;-71
2023/01/15 05:25:45;;;;;;;;;;;7.90;99.90;;;;;;2026977;29;20363;-71
2023/01/15 05:26:45;;;;;;;;;;;7.90;99.90;;;;;;2035932;29;20051;-71
2023/01/15 05:27:46;;;;;;;;;;;8.00;99.90;;;;;;2029799;29;19921;-71
2023/01/15 05:28:46;;;;;;;;;;;7.90;99.90;;;;;;2025492;29;19911;-71
2023/01/15 05:29:47;;;;;;;;;;;7.90;99.90;;;;;;2025297;29;19968;-71
2023/01/15 05:30:47;;;;;;;;;;;7.90;99.90;;;;;;2025044;29;19915;-71
2023/01/15 05:31:48;;;;;;;;;;;7.90;99.90;;;;;;2022650;29;19919;-71
2023/01/15 05:32:48;;;;;;;;;;;7.90;99.90;;;;;;2022043;29;20014;-71
2023/01/15 05:33:49;;;;;;;;;;;7.90;99.90;;;;;;2022779;29;19915;-71
2023/01/15 05:34:50;;;;;;;;;;;7.90;99.90;;;;;;2025505;29;20368;-71
2023/01/15 05:35:50;;;;;;;;;;;7.90;99.90;;;;;;2024181;29;19926;-71
2023/01/15 05:36:50;;;;;;;;;;;7.90;99.90;;;;;;2023117;29;19927;-71
2023/01/15 05:37:51;;;;;;;;;;;7.90;99.90;;;;;;2025010;29;19926;-71
2023/01/15 05:38:52;;;;;;;;;;;8.00;99.90;;;;;;2022329;29;20025;-71
2023/01/15 05:39:52;;;;;;;;;;;7.90;99.90;;;;;;2023763;29;20380;-71
2023/01/15 05:40:53;;;;;;;;;;;7.90;99.90;;;;;;2024483;29;20724;-71
2023/01/15 05:41:53;;;;;;;;;;;7.90;99.90;;;;;;2023344;29;19950;-71
2023/01/15 05:42:54;;;;;;;;;;;7.90;99.90;;;;;;2024956;29;20648;-71
2023/01/15 05:43:55;;;;;;;;;;;7.90;99.90;;;;;;2027002;29;20001;-71
2023/01/15 05:44:55;;;;;;;;;;;7.90;99.90;;;;;;2024532;29;19911;-71
2023/01/15 05:46:00;;;;;;;;;;;7.90;99.90;;;;;;2024926;29;19911;-71
2023/01/15 05:47:01;;;;;;;;;;;7.90;99.90;;;;;;2024443;29;19922;-71
2023/01/15 05:48:02;;;;;;;;;;;7.90;99.90;;;;;;2024734;29;19924;-71
2023/01/15 05:49:04;;;;;;;;;;;7.90;99.90;;;;;;2024976;29;19911;-72
2023/01/15 05:50:04;;;;;;;;;;;8.00;99.90;;;;;;2025018;29;19911;-71
2023/01/15 05:51:05;;;;;;;;;;;7.90;99.90;;;;;;2025537;29;19911;-71
2023/01/15 05:52:05;;;;;;;;;;;7.90;99.90;;;;;;2023765;29;20391;-71
2023/01/15 05:53:06;;;;;;;;;;;7.90;99.90;;;;;;2022735;29;19915;-71
2023/01/15 05:54:08;;;;;;;;;;;7.90;99.90;;;;;;2025706;29;19915;-71
2023/01/15 05:55:08;;;;;;;;;;;7.90;99.90;;;;;;2025715;29;19911;-71
2023/01/15 05:56:09;;;;;;;;;;;7.90;99.90;;;;;;2027591;29;19921;-71
2023/01/15 05:57:11;;;;;;;;;;;8.00;99.90;;;;;;2024878;29;20268;-71
2023/01/15 05:58:12;;;;;;;;;;;7.90;99.90;;;;;;2023548;29;20422;-71
2023/01/15 05:59:13;;;;;;;;;;;7.90;99.90;;;;;;2025777;29;20077;-71
2023/01/15 06:00:13;;;;;;;;;;;7.90;99.90;;;;;;2024387;29;19911;-71
2023/01/15 06:01:14;;;;;;;;;;;7.90;99.90;;;;;;2025917;29;19912;-71
2023/01/15 06:02:14;;;;;;;;;;;7.90;99.90;;;;;;2025189;29;19911;-71
2023/01/15 06:03:15;;;;;;;;;;;7.90;99.90;;;;;;2023037;29;19926;-71
2023/01/15 06:04:19;;;;;;;;;;;8.00;99.90;;;;;;2023385;29;19915;-71
2023/01/15 06:05:20;;;;;;;;;;;7.90;99.90;;;;;;2023637;29;19911;-71
2023/01/15 06:06:20;;;;;;;;;;;8.00;99.90;;;;;;2023781;29;19911;-71
2023/01/15 06:07:21;;;;;;;;;;;8.00;99.90;;;;;;2024320;29;19945;-71
2023/01/15 06:08:22;;;;;;;;;;;8.00;99.90;;;;;;2023286;29;19926;-71
2023/01/15 06:09:23;;;;;;;;;;;8.00;99.90;;;;;;2024804;29;19912;-71
2023/01/15 06:10:23;;;;;;;;;;;7.90;99.90;;;;;;2024912;29;19911;-71
2023/01/15 06:11:24;;;;;;;;;;;7.90;99.90;;;;;;2023149;29;19923;-71
2023/01/15 06:12:25;;;;;;;;;;;8.00;99.90;;;;;;2025304;29;19933;-71
2023/01/15 06:13:25;;;;;;;;;;;8.00;99.90;;;;;;2023818;29;19915;-71
2023/01/15 06:14:26;;;;;;;;;;;7.90;99.90;;;;;;2026844;29;19911;-71
2023/01/15 06:15:26;;;;;;;;;;;7.90;99.90;;;;;;2025570;29;20379;-71
2023/01/15 06:16:27;;;;;;;;;;;7.90;99.90;;;;;;2024875;29;20283;-71
2023/01/15 06:17:27;;;;;;;;;;;7.90;99.90;;;;;;2023954;29;19916;-71
2023/01/15 06:18:28;;;;;;;;;;;7.90;99.90;;;;;;2024980;29;19938;-71